createdAt,value
2018-07-09T00:01:42.527Z,100836.28
2018-07-09T00:04:11.917Z,100831.78
2018-07-09T00:06:41.169Z,100830.83
2018-07-09T00:09:10.517Z,100833.34
2018-07-09T00:11:39.858Z,100834.59
2018-07-09T00:14:09.121Z,100837.83
2018-07-09T00:16:38.466Z,100835.62
2018-07-09T00:19:07.750Z,100832.50
2018-07-09T00:21:37.159Z,100836.27
2018-07-09T00:24:06.636Z,100823.25
2018-07-09T00:26:36.565Z,100833.25
2018-07-09T00:29:06.180Z,100834.05
2018-07-09T00:31:35.886Z,100832.17
2018-07-09T00:34:05.814Z,100822.30
2018-07-09T00:36:35.237Z,100825.02
2018-07-09T00:39:05.334Z,100827.41
2018-07-09T00:41:35.237Z,100828.67
2018-07-09T00:44:04.601Z,100826.39
2018-07-09T00:46:33.879Z,100826.39
2018-07-09T00:49:03.254Z,100816.80
2018-07-09T00:51:32.795Z,100817.70
2018-07-09T00:54:01.924Z,100823.28
2018-07-09T00:56:31.130Z,100815.09
2018-07-09T00:59:00.724Z,100817.06
2018-07-09T01:01:30.050Z,100816.80
2018-07-09T01:03:59.335Z,100816.11
2018-07-09T01:06:28.570Z,100810.41
2018-07-09T01:08:57.746Z,100813.31
2018-07-09T01:11:38.109Z,100806.17
2018-07-09T01:14:07.490Z,100813.31
2018-07-09T01:16:36.726Z,100810.75
2018-07-09T01:19:06.000Z,100803.69
2018-07-09T01:21:35.438Z,100801.55
2018-07-09T01:24:04.673Z,100801.30
2018-07-09T01:26:33.920Z,100807.66
2018-07-09T01:29:03.175Z,100798.80
2018-07-09T01:31:32.412Z,100804.08
2018-07-09T01:34:01.677Z,100808.22
2018-07-09T01:36:30.920Z,100804.58
2018-07-09T01:39:00.199Z,100808.45
2018-07-09T01:41:30.632Z,100812.39
2018-07-09T01:43:59.908Z,100801.09
2018-07-09T01:46:29.246Z,100803.22
2018-07-09T01:48:58.552Z,100804.45
2018-07-09T01:51:27.870Z,100803.48
2018-07-09T01:53:57.414Z,100794.05
2018-07-09T01:56:26.649Z,100797.44
2018-07-09T01:58:55.893Z,100798.17
2018-07-09T02:01:25.131Z,100805.07
2018-07-09T02:03:54.406Z,100797.50
2018-07-09T02:06:23.735Z,100796.17
2018-07-09T02:08:52.993Z,100797.84
2018-07-09T02:11:22.259Z,100799.27
2018-07-09T02:13:51.714Z,100799.17
2018-07-09T02:16:20.947Z,100792.46
2018-07-09T02:18:50.246Z,100794.39
2018-07-09T02:21:19.651Z,100797.56
2018-07-09T02:23:48.952Z,100788.74
2018-07-09T02:26:18.374Z,100796.72
2018-07-09T02:28:47.632Z,100804.75
2018-07-09T02:31:17.000Z,100805.36
2018-07-09T02:33:46.231Z,100799.87
2018-07-09T02:36:15.642Z,100799.04
2018-07-09T02:38:45.012Z,100800.63
2018-07-09T02:41:14.260Z,100806.37
2018-07-09T02:43:43.561Z,100813.20
2018-07-09T02:46:12.861Z,100813.42
2018-07-09T02:48:42.164Z,100815.67
2018-07-09T02:51:11.474Z,100816.77
2018-07-09T02:53:40.743Z,100825.86
2018-07-09T02:56:10.174Z,100821.48
2018-07-09T02:58:39.438Z,100826.83
2018-07-09T03:01:08.944Z,100821.73
2018-07-09T03:03:38.239Z,100825.73
2018-07-09T03:06:07.595Z,100833.25
2018-07-09T03:08:36.850Z,100833.20
2018-07-09T03:11:06.406Z,100832.95
2018-07-09T03:13:35.683Z,100831.09
2018-07-09T03:16:04.982Z,100826.58
2018-07-09T03:18:34.387Z,100836.97
2018-07-09T03:21:03.763Z,100843.66
2018-07-09T03:23:33.105Z,100841.60
2018-07-09T03:26:02.347Z,100834.77
2018-07-09T03:28:31.703Z,100836.81
2018-07-09T03:31:00.986Z,100846.94
2018-07-09T03:33:30.406Z,100843.71
2018-07-09T03:35:59.667Z,100842.23
2018-07-09T03:38:29.024Z,100840.55
2018-07-09T03:40:58.249Z,100844.39
2018-07-09T03:43:27.589Z,100845.78
2018-07-09T03:45:56.956Z,100838.61
2018-07-09T03:48:26.297Z,100844.34
2018-07-09T03:50:55.570Z,100845.70
2018-07-09T03:53:25.005Z,100844.72
2018-07-09T03:55:54.445Z,100838.80
2018-07-09T03:58:23.803Z,100839.50
2018-07-09T04:00:53.063Z,100841.13
2018-07-09T04:03:22.305Z,100843.58
2018-07-09T04:05:51.567Z,100836.95
2018-07-09T04:08:20.808Z,100837.39
2018-07-09T04:10:50.203Z,100835.33
2018-07-09T04:13:19.626Z,100840.17
2018-07-09T04:15:48.987Z,100844.56
2018-07-09T04:18:21.995Z,100849.16
2018-07-09T04:20:51.288Z,100848.30
2018-07-09T04:23:20.715Z,100842.65
2018-07-09T04:25:50.073Z,100845.05
2018-07-09T04:28:19.417Z,100848.73
2018-07-09T04:30:49.043Z,100851.69
2018-07-09T04:33:18.577Z,100852.48
2018-07-09T04:35:47.823Z,100856.91
2018-07-09T04:38:17.103Z,100853.34
2018-07-09T04:40:46.423Z,100850.77
2018-07-09T04:43:15.869Z,100848.16
2018-07-09T04:45:45.219Z,100846.92
2018-07-09T04:48:14.562Z,100839.72
2018-07-09T04:50:43.810Z,100839.61
2018-07-09T04:53:13.057Z,100846.42
2018-07-09T04:55:42.384Z,100851.19
2018-07-09T04:58:11.640Z,100849.33
2018-07-09T05:00:40.999Z,100848.52
2018-07-09T05:03:10.251Z,100851.70
2018-07-09T05:05:39.667Z,100858.21
2018-07-09T05:08:09.076Z,100852.45
2018-07-09T05:10:38.304Z,100849.67
2018-07-09T05:13:07.591Z,100849.00
2018-07-09T05:15:36.821Z,100844.27
2018-07-09T05:18:06.141Z,100840.37
2018-07-09T05:20:35.745Z,100842.08
2018-07-09T05:23:05.215Z,100844.48
2018-07-09T05:25:34.532Z,100838.52
2018-07-09T05:28:03.770Z,100840.05
2018-07-09T05:30:33.140Z,100846.44
2018-07-09T05:33:02.469Z,100854.30
2018-07-09T05:35:31.809Z,100850.34
2018-07-09T05:38:01.053Z,100843.52
2018-07-09T05:40:30.298Z,100847.42
2018-07-09T05:42:59.638Z,100854.78
2018-07-09T05:45:28.809Z,100852.94
2018-07-09T05:47:58.050Z,100852.23
2018-07-09T05:50:27.350Z,100858.54
2018-07-09T05:52:56.771Z,100858.27
2018-07-09T05:55:26.034Z,100854.72
2018-07-09T05:57:55.270Z,100853.77
2018-07-09T06:00:24.582Z,100857.45
2018-07-09T06:02:53.958Z,100855.66
2018-07-09T06:05:23.344Z,100859.80
2018-07-09T06:07:52.689Z,100860.78
2018-07-09T06:10:21.948Z,100858.71
2018-07-09T06:12:51.361Z,100856.44
2018-07-09T06:15:20.659Z,100859.48
2018-07-09T06:17:49.974Z,100858.41
2018-07-09T06:20:19.359Z,100853.09
2018-07-09T06:22:48.799Z,100850.80
2018-07-09T06:25:18.044Z,100857.41
2018-07-09T06:27:47.265Z,100851.84
2018-07-09T06:30:16.881Z,100851.51
2018-07-09T06:32:46.277Z,100855.38
2018-07-09T06:35:15.535Z,100862.80
2018-07-09T06:37:44.899Z,100862.28
2018-07-09T06:40:14.238Z,100867.30
2018-07-09T06:42:43.620Z,100869.38
2018-07-09T06:45:12.966Z,100877.31
2018-07-09T06:47:42.258Z,100875.91
2018-07-09T06:50:11.577Z,100873.99
2018-07-09T06:52:40.903Z,100888.31
2018-07-09T06:55:10.292Z,100879.16
2018-07-09T06:57:39.483Z,100880.67
2018-07-09T07:00:08.893Z,100884.87
2018-07-09T07:02:38.277Z,100878.19
2018-07-09T07:05:07.697Z,100870.87
2018-07-09T07:07:37.081Z,100875.86
2018-07-09T07:10:06.422Z,100873.77
2018-07-09T07:12:35.759Z,100881.48
2018-07-09T07:15:05.105Z,100887.26
2018-07-09T07:17:34.358Z,100882.83
2018-07-09T07:20:03.744Z,100891.18
2018-07-09T07:22:33.078Z,100888.23
2018-07-09T07:25:02.414Z,100870.33
2018-07-09T07:27:31.686Z,100885.58
2018-07-09T07:30:00.938Z,100882.30
2018-07-09T07:32:30.418Z,100890.66
2018-07-09T07:34:59.857Z,100886.83
2018-07-09T07:37:29.155Z,100878.92
2018-07-09T07:39:58.528Z,100875.85
2018-07-09T07:42:28.675Z,100879.90
2018-07-09T07:44:58.093Z,100878.03
2018-07-09T07:47:27.299Z,100878.23
2018-07-09T07:49:56.655Z,100877.01
2018-07-09T07:52:25.903Z,100881.17
2018-07-09T07:54:55.264Z,100880.30
2018-07-09T07:57:24.197Z,100879.12
2018-07-09T07:59:53.179Z,100879.04
2018-07-09T08:02:22.426Z,100875.33
2018-07-09T08:04:51.827Z,100879.88
2018-07-09T08:07:21.222Z,100886.34
2018-07-09T08:09:50.606Z,100870.25
2018-07-09T08:14:49.254Z,100868.93
2018-07-09T08:17:18.501Z,100870.74
2018-07-09T08:19:47.755Z,100876.87
2018-07-09T08:22:16.992Z,100871.05
2018-07-09T08:24:46.330Z,100874.23
2018-07-09T08:27:15.643Z,100863.44
2018-07-09T08:29:44.944Z,100866.48
2018-07-09T08:32:14.211Z,100859.11
2018-07-09T08:34:43.450Z,100851.61
2018-07-09T08:37:12.803Z,100864.36
2018-07-09T08:39:42.132Z,100858.29
2018-07-09T08:42:11.395Z,100855.48
2018-07-09T08:44:43.065Z,100856.27
2018-07-09T08:47:12.730Z,100858.71
2018-07-09T08:49:42.035Z,100864.38
2018-07-09T08:52:11.513Z,100854.64
2018-07-09T08:54:40.916Z,100854.63
2018-07-09T08:57:10.171Z,100848.36
2018-07-09T08:59:39.421Z,100855.34
2018-07-09T09:02:08.678Z,100859.38
2018-07-09T09:04:38.025Z,100849.78
2018-07-09T09:07:07.421Z,100852.11
2018-07-09T09:09:36.698Z,100848.66
2018-07-09T09:12:06.024Z,100845.91
2018-07-09T09:14:35.409Z,100845.62
2018-07-09T09:17:04.605Z,100840.70
2018-07-09T09:19:33.932Z,100841.97
2018-07-09T09:22:03.226Z,100841.17
2018-07-09T09:24:32.628Z,100841.72
2018-07-09T09:27:02.033Z,100847.31
2018-07-09T09:29:31.363Z,100839.81
2018-07-09T09:32:00.694Z,100834.56
2018-07-09T09:34:29.952Z,100828.84
2018-07-09T09:36:59.231Z,100834.05
2018-07-09T09:39:28.533Z,100826.31
2018-07-09T09:41:58.040Z,100818.07
2018-07-09T09:44:27.519Z,100829.47
2018-07-09T09:46:56.798Z,100824.03
2018-07-09T09:49:26.225Z,100817.80
2018-07-09T09:51:55.490Z,100814.62
2018-07-09T09:54:24.873Z,100809.77
2018-07-09T09:56:54.223Z,100819.00
2018-07-09T09:59:23.782Z,100816.63
2018-07-09T10:01:53.524Z,100811.97
2018-07-09T10:04:22.870Z,100808.58
2018-07-09T10:06:52.142Z,100800.23
2018-07-09T10:09:21.382Z,100794.36
2018-07-09T10:11:50.628Z,100796.09
2018-07-09T10:14:20.170Z,100803.70
2018-07-09T10:16:49.512Z,100796.58
2018-07-09T10:19:19.742Z,100796.77
2018-07-09T10:21:50.202Z,100798.66
2018-07-09T10:24:19.426Z,100798.08
2018-07-09T10:26:49.849Z,100789.92
2018-07-09T10:29:19.157Z,100789.44
2018-07-09T10:31:48.327Z,100785.66
2018-07-09T10:34:17.542Z,100805.96
2018-07-09T10:36:46.733Z,100801.19
2018-07-09T10:39:16.065Z,100791.20
2018-07-09T10:48:51.249Z,100771.08
2018-07-09T10:51:20.679Z,100767.96
2018-07-09T10:53:51.079Z,100760.52
2018-07-09T10:56:20.365Z,100756.95
2018-07-09T10:58:49.632Z,100751.28
2018-07-09T11:01:18.989Z,100751.94
2018-07-09T11:03:48.738Z,100752.53
2018-07-09T11:06:18.083Z,100757.53
2018-07-09T11:08:47.901Z,100752.80
2018-07-09T11:11:17.300Z,100740.95
2018-07-09T11:13:46.564Z,100739.56
2018-07-09T11:16:15.839Z,100745.05
2018-07-09T11:18:45.118Z,100742.64
2018-07-09T11:21:14.404Z,100741.23
2018-07-09T11:23:43.671Z,100743.43
2018-07-09T11:26:13.113Z,100747.72
2018-07-09T11:28:42.733Z,100739.30
2018-07-09T11:31:12.111Z,100744.02
2018-07-09T11:33:41.365Z,100740.95
2018-07-09T11:36:10.927Z,100745.83
2018-07-09T11:38:40.274Z,100738.81
2018-07-09T11:41:09.526Z,100746.17
2018-07-09T11:43:38.805Z,100746.38
2018-07-09T11:46:08.134Z,100746.59
2018-07-09T11:48:37.481Z,100746.66
2018-07-09T11:51:06.610Z,100745.73
2018-07-09T11:53:35.885Z,100748.17
2018-07-09T11:56:05.153Z,100742.37
2018-07-09T11:58:34.441Z,100736.01
2018-07-09T12:01:03.718Z,100745.14
2018-07-09T12:03:32.995Z,100747.06
2018-07-09T12:06:02.455Z,100733.80
2018-07-09T12:08:31.776Z,100718.03
2018-07-09T12:11:01.125Z,100738.22
2018-07-09T12:13:30.609Z,100732.66
2018-07-09T12:16:00.062Z,100737.12
2018-07-09T12:18:29.306Z,100735.16
2018-07-09T12:20:58.541Z,100727.45
2018-07-09T12:23:28.077Z,100730.16
2018-07-09T12:25:57.368Z,100722.17
2018-07-09T12:28:26.593Z,100721.36
2018-07-09T12:30:55.837Z,100721.64
2018-07-09T12:33:25.136Z,100720.81
2018-07-09T12:35:54.343Z,100722.69
2018-07-09T12:38:23.713Z,100719.56
2018-07-09T12:40:53.154Z,100717.77
2018-07-09T12:43:22.407Z,100712.50
2018-07-09T12:45:51.872Z,100707.55
2018-07-09T12:48:21.214Z,100711.41
2018-07-09T12:50:50.651Z,100709.70
2018-07-09T12:53:19.963Z,100711.97
2018-07-09T12:55:49.339Z,100706.19
2018-07-09T12:58:18.680Z,100713.53
2018-07-09T13:00:47.968Z,100711.39
2018-07-09T13:03:17.235Z,100709.72
2018-07-09T13:05:46.666Z,100704.14
2018-07-09T13:08:16.064Z,100701.55
2018-07-09T13:10:45.421Z,100703.61
2018-07-09T13:13:14.655Z,100704.30
2018-07-09T13:15:44.476Z,100700.47
2018-07-09T13:18:13.764Z,100695.66
2018-07-09T13:20:42.769Z,100693.97
2018-07-09T13:23:11.737Z,100680.45
2018-07-09T13:25:40.770Z,100690.95
2018-07-09T13:28:09.787Z,100685.16
2018-07-09T13:30:38.829Z,100677.37
2018-07-09T13:33:07.804Z,100679.47
2018-07-09T13:35:37.154Z,100691.33
2018-07-09T13:38:06.649Z,100687.64
2018-07-09T13:40:36.052Z,100690.16
2018-07-09T13:43:05.418Z,100677.13
2018-07-09T13:45:35.221Z,100679.06
2018-07-09T13:48:04.602Z,100678.89
2018-07-09T13:50:34.529Z,100676.21
2018-07-09T13:53:03.907Z,100669.13
2018-07-09T13:55:33.138Z,100677.52
2018-07-09T13:58:02.484Z,100666.91
2018-07-09T14:00:31.754Z,100666.64
2018-07-09T14:03:01.094Z,100660.56
2018-07-09T14:05:30.436Z,100660.27
2018-07-09T14:07:59.774Z,100667.23
2018-07-09T14:10:29.152Z,100672.71
2018-07-09T14:12:59.270Z,100666.63
2018-07-09T14:15:28.922Z,100670.98
2018-07-09T14:17:59.043Z,100667.22
2018-07-09T14:20:30.830Z,100659.75
2018-07-09T14:23:00.773Z,100659.20
2018-07-09T14:25:30.097Z,100662.95
2018-07-09T14:27:59.507Z,100646.20
2018-07-09T14:30:28.874Z,100656.69
2018-07-09T14:32:58.133Z,100655.03
2018-07-09T14:35:29.159Z,100647.09
2018-07-09T14:37:58.382Z,100652.55
2018-07-09T14:40:27.884Z,100643.98
2018-07-09T14:42:57.242Z,100643.42
2018-07-09T14:45:26.578Z,100640.97
2018-07-09T14:47:55.995Z,100633.20
2018-07-09T14:50:25.221Z,100634.86
2018-07-09T14:52:54.562Z,100639.29
2018-07-09T14:55:23.862Z,100643.98
2018-07-09T14:57:53.270Z,100642.62
2018-07-09T15:00:22.625Z,100641.74
2018-07-09T15:02:54.379Z,100638.47
2018-07-09T15:05:23.608Z,100637.91
2018-07-09T15:07:52.975Z,100635.16
2018-07-09T15:10:22.243Z,100633.46
2018-07-09T15:12:51.551Z,100637.00
2018-07-09T15:15:20.814Z,100626.98
2018-07-09T15:17:50.232Z,100624.37
2018-07-09T15:20:19.674Z,100616.08
2018-07-09T15:22:49.063Z,100616.37
2018-07-09T15:25:18.349Z,100610.84
2018-07-09T15:27:47.654Z,100607.26
2018-07-09T15:30:16.951Z,100610.24
2018-07-09T15:32:46.145Z,100608.09
2018-07-09T15:35:15.446Z,100612.53
2018-07-09T15:37:44.850Z,100592.33
2018-07-09T15:40:14.221Z,100597.56
2018-07-09T15:42:43.755Z,100600.52
2018-07-09T15:45:13.082Z,100597.75
2018-07-09T15:47:42.596Z,100595.16
2018-07-09T15:50:11.858Z,100588.12
2018-07-09T15:52:41.177Z,100591.69
2018-07-09T15:55:10.462Z,100587.59
2018-07-09T15:57:39.983Z,100590.09
2018-07-09T16:00:09.271Z,100586.77
2018-07-09T16:02:39.503Z,100588.30
2018-07-09T16:05:08.965Z,100578.21
2018-07-09T16:07:38.463Z,100581.55
2018-07-09T16:10:08.019Z,100573.86
2018-07-09T16:12:37.514Z,100572.17
2018-07-09T16:15:07.201Z,100576.62
2018-07-09T16:17:36.554Z,100566.92
2018-07-09T16:20:05.806Z,100564.16
2018-07-09T16:22:34.979Z,100566.09
2018-07-09T16:25:04.314Z,100566.92
2018-07-09T16:27:33.626Z,100570.38
2018-07-09T16:30:03.123Z,100566.84
2018-07-09T16:32:32.458Z,100561.91
2018-07-09T16:35:01.840Z,100567.25
2018-07-09T16:37:30.849Z,100563.49
2018-07-09T16:39:59.816Z,100567.03
2018-07-09T16:42:28.925Z,100565.87
2018-07-09T16:44:58.201Z,100564.09
2018-07-09T16:47:27.518Z,100565.00
2018-07-09T16:49:56.893Z,100558.34
2018-07-09T16:52:26.277Z,100560.18
2018-07-09T16:54:55.560Z,100550.58
2018-07-09T16:57:24.813Z,100555.18
2018-07-09T16:59:54.124Z,100554.11
2018-07-09T17:02:23.422Z,100550.88
2018-07-09T17:04:52.671Z,100551.95
2018-07-09T17:07:21.948Z,100556.31
2018-07-09T17:09:51.174Z,100551.81
2018-07-09T17:12:20.570Z,100554.72
2018-07-09T17:14:49.902Z,100555.30
2018-07-09T17:17:19.242Z,100557.76
2018-07-09T17:19:48.743Z,100563.34
2018-07-09T17:22:18.242Z,100555.84
2018-07-09T17:24:47.931Z,100560.22
2018-07-09T17:27:17.815Z,100568.77
2018-07-09T17:29:47.129Z,100572.80
2018-07-09T17:32:16.578Z,100572.51
2018-07-09T17:34:45.846Z,100566.79
2018-07-09T17:37:15.294Z,100570.15
2018-07-09T17:39:44.703Z,100568.51
2018-07-09T17:42:13.953Z,100575.45
2018-07-09T17:44:43.390Z,100572.06
2018-07-09T17:47:12.753Z,100570.81
2018-07-09T17:49:42.003Z,100563.58
2018-07-09T17:52:11.270Z,100572.20
2018-07-09T17:54:40.716Z,100564.27
2018-07-09T17:57:10.073Z,100564.13
2018-07-09T17:59:39.547Z,100571.62
2018-07-09T18:02:08.866Z,100561.35
2018-07-09T18:04:38.075Z,100569.82
2018-07-09T18:07:07.595Z,100556.12
2018-07-09T18:09:36.995Z,100555.99
2018-07-09T18:12:06.380Z,100563.03
2018-07-09T18:14:35.726Z,100555.99
2018-07-09T18:17:05.019Z,100546.38
2018-07-09T18:19:34.520Z,100552.42
2018-07-09T18:22:03.865Z,100551.39
2018-07-09T18:24:33.202Z,100556.96
2018-07-09T18:27:02.480Z,100553.84
2018-07-09T18:29:31.710Z,100549.40
2018-07-09T18:32:01.523Z,100544.25
2018-07-09T18:34:30.824Z,100550.64
2018-07-09T18:37:00.194Z,100549.73
2018-07-09T18:39:29.409Z,100552.09
2018-07-09T18:41:58.685Z,100559.95
2018-07-09T18:44:27.921Z,100548.32
2018-07-09T18:46:57.318Z,100549.61
2018-07-09T18:49:26.566Z,100558.68
2018-07-09T18:51:55.812Z,100555.37
2018-07-09T18:54:26.044Z,100555.25
2018-07-09T18:56:55.449Z,100552.20
2018-07-09T18:59:24.773Z,100546.75
2018-07-09T19:01:54.036Z,100545.97
2018-07-09T19:04:23.375Z,100537.26
2018-07-09T19:06:57.532Z,100544.42
2018-07-09T19:09:27.450Z,100531.00
2018-07-09T19:11:56.643Z,100535.41
2018-07-09T19:14:31.309Z,100537.54
2018-07-09T19:18:18.430Z,100551.44
2018-07-09T19:21:33.089Z,100550.92
2018-07-09T19:24:01.442Z,100549.58
2018-07-09T19:26:29.033Z,100549.44
2018-07-09T19:28:56.900Z,100539.47
2018-07-09T19:31:24.670Z,100540.31
2018-07-09T19:33:52.537Z,100539.05
2018-07-09T19:36:20.310Z,100543.55
2018-07-09T19:38:48.080Z,100535.26
2018-07-09T19:41:15.930Z,100537.69
2018-07-09T19:43:43.797Z,100541.48
2018-07-09T19:46:11.438Z,100534.59
2018-07-09T19:48:39.223Z,100536.45
2018-07-09T19:51:07.328Z,100534.97
2018-07-09T19:53:35.063Z,100533.92
2018-07-09T19:56:03.146Z,100534.66
2018-07-09T19:58:30.790Z,100538.16
2018-07-09T20:00:58.551Z,100532.61
2018-07-09T20:03:26.420Z,100539.13
2018-07-09T20:05:54.189Z,100539.63
2018-07-09T20:08:21.953Z,100547.99
2018-07-09T20:10:54.556Z,100552.91
2018-07-09T20:13:27.694Z,100558.30
2018-07-09T20:16:00.710Z,100553.55
2018-07-09T20:18:28.473Z,100549.89
2018-07-09T20:20:56.261Z,100555.27
2018-07-09T20:23:24.106Z,100544.23
2018-07-09T20:25:51.972Z,100552.81
2018-07-09T20:28:19.742Z,100550.97
2018-07-09T20:30:47.604Z,100552.04
2018-07-09T20:33:15.542Z,100551.28
2018-07-09T20:35:43.234Z,100547.88
2018-07-09T20:38:11.001Z,100551.06
2018-07-09T20:40:38.873Z,100552.50
2018-07-09T20:43:06.573Z,100544.80
2018-07-09T20:45:34.570Z,100548.03
2018-07-09T20:48:02.266Z,100543.67
2018-07-09T20:50:30.083Z,100537.19
2018-07-09T20:52:57.689Z,100536.48
2018-07-09T20:55:25.410Z,100542.43
2018-07-09T20:57:53.125Z,100549.85
2018-07-09T21:00:21.015Z,100545.98
2018-07-09T21:02:48.812Z,100549.84
2018-07-09T21:05:16.617Z,100545.80
2018-07-09T21:07:44.351Z,100544.30
2018-07-09T21:10:12.147Z,100534.36
2018-07-09T21:12:44.830Z,100534.02
2018-07-09T21:15:12.849Z,100534.40
2018-07-09T21:17:40.558Z,100536.09
2018-07-09T21:20:08.321Z,100537.63
2018-07-09T21:22:36.292Z,100526.26
2018-07-09T21:25:04.112Z,100523.09
2018-07-09T21:27:31.823Z,100523.31
2018-07-09T21:29:59.615Z,100527.50
2018-07-09T21:32:27.664Z,100526.73
2018-07-09T21:34:55.532Z,100526.48
2018-07-09T21:37:23.259Z,100524.53
2018-07-09T21:39:51.156Z,100524.14
2018-07-09T21:42:18.823Z,100523.52
2018-07-09T21:44:46.628Z,100530.20
2018-07-09T21:47:14.245Z,100518.34
2018-07-09T21:49:41.903Z,100517.28
2018-07-09T21:52:09.798Z,100515.36
2018-07-09T21:54:37.592Z,100515.95
2018-07-09T21:57:05.408Z,100511.97
2018-07-09T21:59:33.170Z,100515.17
2018-07-09T22:02:00.994Z,100511.39
2018-07-09T22:04:28.704Z,100510.78
2018-07-09T22:06:56.567Z,100508.50
2018-07-09T22:09:24.225Z,100508.34
2018-07-09T22:11:52.091Z,100496.72
2018-07-09T22:14:19.758Z,100496.41
2018-07-09T22:16:47.640Z,100496.20
2018-07-09T22:19:15.902Z,100499.09
2018-07-09T22:21:44.081Z,100504.15
2018-07-09T22:24:11.739Z,100503.84
2018-07-09T22:26:39.605Z,100500.14
2018-07-09T22:29:07.437Z,100497.17
2018-07-09T22:31:36.696Z,100501.94
2018-07-09T22:34:06.033Z,100507.87
2018-07-09T22:36:35.373Z,100504.41
2018-07-09T22:39:05.302Z,100498.80
2018-07-09T22:41:34.862Z,100495.20
2018-07-09T22:44:16.272Z,100495.00
2018-07-09T22:46:45.785Z,100501.95
2018-07-09T22:49:15.275Z,100504.11
2018-07-09T22:51:44.720Z,100501.84
2018-07-09T22:54:14.045Z,100497.24
2018-07-09T22:56:43.455Z,100502.58
2018-07-09T22:59:12.763Z,100495.31
2018-07-09T23:01:42.204Z,100494.00
2018-07-09T23:04:11.513Z,100493.22
2018-07-09T23:06:40.805Z,100486.36
2018-07-09T23:09:55.675Z,100482.82
2018-07-09T23:13:37.883Z,100488.50
2018-07-09T23:16:44.359Z,100491.11
2018-07-09T23:19:28.369Z,100489.80
2018-07-09T23:22:08.666Z,100477.82
2018-07-09T23:24:36.424Z,100484.84
2018-07-09T23:27:04.291Z,100490.00
2018-07-09T23:29:32.064Z,100481.53
2018-07-09T23:31:59.926Z,100491.33
2018-07-09T23:34:27.794Z,100488.00
2018-07-09T23:36:55.553Z,100495.03
2018-07-09T23:39:23.420Z,100491.89
2018-07-09T23:41:51.332Z,100493.18
2018-07-09T23:44:19.055Z,100486.53
2018-07-09T23:46:46.919Z,100481.66
2018-07-09T23:49:14.685Z,100479.77
2018-07-09T23:51:42.344Z,100481.41
2018-07-09T23:54:10.001Z,100473.85
2018-07-09T23:58:53.413Z,100477.58
